sensor_id;sensor_type;location;lat;lon;timestamp;P1;durP1;ratioP1;P2;durP2;ratioP2
58874;SDS011;44652;49.040;12.126;2024-03-23T06:35:38;6.97;;;4.35;;
58874;SDS011;44652;49.040;12.126;2024-03-23T06:38:04;6.88;;;4.47;;
58874;SDS011;44652;49.040;12.126;2024-03-23T06:40:30;6.88;;;4.07;;
58874;SDS011;44652;49.040;12.126;2024-03-23T06:42:56;7.70;;;4.10;;
58874;SDS011;44652;49.040;12.126;2024-03-23T06:45:22;8.38;;;4.20;;
58874;SDS011;44652;49.040;12.126;2024-03-23T06:47:49;9.25;;;4.57;;
58874;SDS011;44652;49.040;12.126;2024-03-23T06:50:15;6.20;;;3.95;;
58874;SDS011;44652;49.040;12.126;2024-03-23T06:52:42;5.70;;;3.25;;
58874;SDS011;44652;49.040;12.126;2024-03-23T06:55:08;9.18;;;4.22;;
58874;SDS011;44652;49.040;12.126;2024-03-23T06:57:34;9.75;;;3.72;;
58874;SDS011;44652;49.040;12.126;2024-03-23T07:00:01;6.93;;;4.38;;
58874;SDS011;44652;49.040;12.126;2024-03-23T07:02:27;7.30;;;4.00;;
58874;SDS011;44652;49.040;12.126;2024-03-23T07:04:53;5.80;;;3.97;;
58874;SDS011;44652;49.040;12.126;2024-03-23T07:07:19;9.68;;;4.75;;
58874;SDS011;44652;49.040;12.126;2024-03-23T07:09:45;7.53;;;4.05;;
58874;SDS011;44652;49.040;12.126;2024-03-23T07:12:11;5.97;;;3.65;;
58874;SDS011;44652;49.040;12.126;2024-03-23T07:14:37;7.53;;;3.00;;
58874;SDS011;44652;49.040;12.126;2024-03-23T07:17:03;7.32;;;4.18;;
58874;SDS011;44652;49.040;12.126;2024-03-23T07:19:29;10.25;;;3.85;;
58874;SDS011;44652;49.040;12.126;2024-03-23T07:21:55;6.68;;;3.83;;
58874;SDS011;44652;49.040;12.126;2024-03-23T07:24:21;8.82;;;4.43;;
58874;SDS011;44652;49.040;12.126;2024-03-23T07:26:47;6.55;;;4.05;;
58874;SDS011;44652;49.040;12.126;2024-03-23T07:29:13;7.72;;;4.03;;
58874;SDS011;44652;49.040;12.126;2024-03-23T07:31:39;5.65;;;3.72;;
58874;SDS011;44652;49.040;12.126;2024-03-23T07:34:05;10.48;;;4.18;;
58874;SDS011;44652;49.040;12.126;2024-03-23T07:36:31;6.38;;;3.80;;
58874;SDS011;44652;49.040;12.126;2024-03-23T07:38:57;7.90;;;3.72;;
58874;SDS011;44652;49.040;12.126;2024-03-23T07:41:23;7.43;;;4.80;;
58874;SDS011;44652;49.040;12.126;2024-03-23T07:43:49;6.50;;;3.75;;
58874;SDS011;44652;49.040;12.126;2024-03-23T07:46:15;6.38;;;3.70;;
58874;SDS011;44652;49.040;12.126;2024-03-23T07:48:42;7.32;;;3.47;;
58874;SDS011;44652;49.040;12.126;2024-03-23T07:51:09;5.38;;;3.50;;
58874;SDS011;44652;49.040;12.126;2024-03-23T07:53:36;7.22;;;3.67;;
58874;SDS011;44652;49.040;12.126;2024-03-23T07:56:06;8.35;;;3.55;;
58874;SDS011;44652;49.040;12.126;2024-03-23T07:58:34;5.85;;;3.50;;
58874;SDS011;44652;49.040;12.126;2024-03-23T08:01:10;9.93;;;4.20;;
58874;SDS011;44652;49.040;12.126;2024-03-23T08:03:38;3.45;;;2.10;;
58874;SDS011;44652;49.040;12.126;2024-03-23T08:06:06;3.97;;;1.88;;
58874;SDS011;44652;49.040;12.126;2024-03-23T08:08:33;5.45;;;1.98;;
58874;SDS011;44652;49.040;12.126;2024-03-23T08:10:58;3.47;;;1.25;;
58874;SDS011;44652;49.040;12.126;2024-03-23T08:13:24;3.90;;;1.75;;
58874;SDS011;44652;49.040;12.126;2024-03-23T08:15:50;3.17;;;1.63;;
58874;SDS011;44652;49.040;12.126;2024-03-23T08:18:16;3.38;;;1.67;;
58874;SDS011;44652;49.040;12.126;2024-03-23T08:20:41;3.20;;;1.25;;
58874;SDS011;44652;49.040;12.126;2024-03-23T08:23:07;3.35;;;1.15;;
58874;SDS011;44652;49.040;12.126;2024-03-23T08:25:34;3.45;;;1.23;;
58874;SDS011;44652;49.040;12.126;2024-03-23T08:28:00;2.17;;;1.20;;
58874;SDS011;44652;49.040;12.126;2024-03-23T08:30:27;5.85;;;2.28;;
58874;SDS011;44652;49.040;12.126;2024-03-23T08:32:53;3.33;;;1.50;;
58874;SDS011;44652;49.040;12.126;2024-03-23T08:35:19;3.00;;;1.73;;
58874;SDS011;44652;49.040;12.126;2024-03-23T08:37:45;3.03;;;1.30;;
58874;SDS011;44652;49.040;12.126;2024-03-23T08:40:11;2.08;;;1.27;;
58874;SDS011;44652;49.040;12.126;2024-03-23T08:42:37;1.70;;;0.90;;
58874;SDS011;44652;49.040;12.126;2024-03-23T08:45:02;2.28;;;0.90;;
58874;SDS011;44652;49.040;12.126;2024-03-23T08:47:28;2.17;;;1.33;;
58874;SDS011;44652;49.040;12.126;2024-03-23T08:49:54;2.10;;;1.25;;
58874;SDS011;44652;49.040;12.126;2024-03-23T08:52:20;2.90;;;1.15;;
58874;SDS011;44652;49.040;12.126;2024-03-23T08:54:48;1.33;;;1.05;;
58874;SDS011;44652;49.040;12.126;2024-03-23T08:57:14;2.92;;;1.00;;
58874;SDS011;44652;49.040;12.126;2024-03-23T08:59:40;1.98;;;0.95;;
58874;SDS011;44652;49.040;12.126;2024-03-23T09:02:05;2.22;;;1.13;;
58874;SDS011;44652;49.040;12.126;2024-03-23T09:04:31;1.13;;;0.73;;
58874;SDS011;44652;49.040;12.126;2024-03-23T09:06:57;1.90;;;1.23;;
58874;SDS011;44652;49.040;12.126;2024-03-23T09:09:25;2.60;;;1.13;;
58874;SDS011;44652;49.040;12.126;2024-03-23T09:11:51;3.13;;;1.17;;
58874;SDS011;44652;49.040;12.126;2024-03-23T09:14:16;2.15;;;1.10;;
58874;SDS011;44652;49.040;12.126;2024-03-23T09:16:42;3.17;;;1.33;;
58874;SDS011;44652;49.040;12.126;2024-03-23T09:19:08;4.18;;;1.70;;
58874;SDS011;44652;49.040;12.126;2024-03-23T09:21:34;1.98;;;1.17;;
58874;SDS011;44652;49.040;12.126;2024-03-23T09:23:59;2.35;;;1.25;;
58874;SDS011;44652;49.040;12.126;2024-03-23T09:26:26;2.10;;;1.27;;
58874;SDS011;44652;49.040;12.126;2024-03-23T09:28:51;3.55;;;1.92;;
58874;SDS011;44652;49.040;12.126;2024-03-23T09:31:17;4.93;;;1.70;;
58874;SDS011;44652;49.040;12.126;2024-03-23T09:33:43;8.70;;;3.20;;
58874;SDS011;44652;49.040;12.126;2024-03-23T09:36:09;18.75;;;4.70;;
58874;SDS011;44652;49.040;12.126;2024-03-23T09:38:35;7.53;;;4.07;;
58874;SDS011;44652;49.040;12.126;2024-03-23T09:41:06;2.13;;;1.58;;
58874;SDS011;44652;49.040;12.126;2024-03-23T09:43:33;2.17;;;1.17;;
58874;SDS011;44652;49.040;12.126;2024-03-23T09:45:59;2.17;;;1.17;;
58874;SDS011;44652;49.040;12.126;2024-03-23T09:48:25;2.80;;;1.50;;
58874;SDS011;44652;49.040;12.126;2024-03-23T09:50:51;2.53;;;1.17;;
58874;SDS011;44652;49.040;12.126;2024-03-23T09:53:17;2.58;;;1.40;;
58874;SDS011;44652;49.040;12.126;2024-03-23T09:55:43;4.75;;;3.20;;
58874;SDS011;44652;49.040;12.126;2024-03-23T09:58:14;2.75;;;1.50;;
58874;SDS011;44652;49.040;12.126;2024-03-23T10:00:41;1.90;;;1.02;;
58874;SDS011;44652;49.040;12.126;2024-03-23T10:03:07;3.90;;;1.65;;
58874;SDS011;44652;49.040;12.126;2024-03-23T10:05:36;1.73;;;1.05;;
58874;SDS011;44652;49.040;12.126;2024-03-23T10:08:21;2.45;;;1.10;;
58874;SDS011;44652;49.040;12.126;2024-03-23T10:10:47;1.48;;;0.90;;
58874;SDS011;44652;49.040;12.126;2024-03-23T10:13:26;2.05;;;1.02;;
58874;SDS011;44652;49.040;12.126;2024-03-23T10:15:59;1.65;;;1.02;;
58874;SDS011;44652;49.040;12.126;2024-03-23T10:18:25;1.65;;;0.75;;
58874;SDS011;44652;49.040;12.126;2024-03-23T10:23:32;1.08;;;0.75;;
58874;SDS011;44652;49.040;12.126;2024-03-23T10:28:52;0.75;;;0.50;;
58874;SDS011;44652;49.040;12.126;2024-03-23T10:31:18;0.77;;;0.70;;
58874;SDS011;44652;49.040;12.126;2024-03-23T10:33:49;0.88;;;0.57;;
58874;SDS011;44652;49.040;12.126;2024-03-23T10:36:15;1.65;;;0.77;;
58874;SDS011;44652;49.040;12.126;2024-03-23T10:38:42;0.50;;;0.50;;
58874;SDS011;44652;49.040;12.126;2024-03-23T10:41:09;0.90;;;0.50;;
58874;SDS011;44652;49.040;12.126;2024-03-23T10:43:36;0.90;;;0.70;;
58874;SDS011;44652;49.040;12.126;2024-03-23T10:46:03;0.50;;;0.40;;
58874;SDS011;44652;49.040;12.126;2024-03-23T10:48:29;0.52;;;0.50;;
58874;SDS011;44652;49.040;12.126;2024-03-23T10:50:55;0.52;;;0.45;;
58874;SDS011;44652;49.040;12.126;2024-03-23T10:53:21;0.50;;;0.40;;
58874;SDS011;44652;49.040;12.126;2024-03-23T10:55:51;0.28;;;0.28;;
58874;SDS011;44652;49.040;12.126;2024-03-23T10:58:28;0.73;;;0.50;;
58874;SDS011;44652;49.040;12.126;2024-03-23T11:00:57;0.80;;;0.60;;
58874;SDS011;44652;49.040;12.126;2024-03-23T11:05:56;0.75;;;0.40;;
58874;SDS011;44652;49.040;12.126;2024-03-23T11:08:55;0.52;;;0.50;;
58874;SDS011;44652;49.040;12.126;2024-03-23T11:11:16;0.38;;;0.38;;
58874;SDS011;44652;49.040;12.126;2024-03-23T11:13:44;0.45;;;0.45;;
58874;SDS011;44652;49.040;12.126;2024-03-23T11:16:13;0.70;;;0.50;;
58874;SDS011;44652;49.040;12.126;2024-03-23T11:18:43;0.98;;;0.70;;
58874;SDS011;44652;49.040;12.126;2024-03-23T11:21:10;0.55;;;0.35;;
58874;SDS011;44652;49.040;12.126;2024-03-23T11:23:36;0.65;;;0.57;;
58874;SDS011;44652;49.040;12.126;2024-03-23T11:26:02;0.45;;;0.40;;
58874;SDS011;44652;49.040;12.126;2024-03-23T11:28:30;0.70;;;0.55;;
58874;SDS011;44652;49.040;12.126;2024-03-23T11:30:55;0.65;;;0.40;;
58874;SDS011;44652;49.040;12.126;2024-03-23T11:33:21;0.70;;;0.40;;
58874;SDS011;44652;49.040;12.126;2024-03-23T11:35:48;1.10;;;0.40;;
58874;SDS011;44652;49.040;12.126;2024-03-23T11:38:14;0.57;;;0.50;;
58874;SDS011;44652;49.040;12.126;2024-03-23T11:40:49;0.52;;;0.52;;
58874;SDS011;44652;49.040;12.126;2024-03-23T11:43:16;0.40;;;0.40;;
58874;SDS011;44652;49.040;12.126;2024-03-23T11:45:50;1.08;;;0.73;;
58874;SDS011;44652;49.040;12.126;2024-03-23T11:48:22;2.15;;;0.60;;
58874;SDS011;44652;49.040;12.126;2024-03-23T11:50:49;1.00;;;0.75;;
58874;SDS011;44652;49.040;12.126;2024-03-23T11:53:23;1.95;;;0.73;;
58874;SDS011;44652;49.040;12.126;2024-03-23T11:55:50;3.30;;;0.80;;
58874;SDS011;44652;49.040;12.126;2024-03-23T11:58:18;0.63;;;0.63;;
58874;SDS011;44652;49.040;12.126;2024-03-23T12:00:52;0.75;;;0.55;;
58874;SDS011;44652;49.040;12.126;2024-03-23T12:03:18;1.70;;;0.77;;
58874;SDS011;44652;49.040;12.126;2024-03-23T12:05:47;1.45;;;0.38;;
58874;SDS011;44652;49.040;12.126;2024-03-23T12:08:25;0.77;;;0.47;;
58874;SDS011;44652;49.040;12.126;2024-03-23T12:11:08;2.17;;;0.60;;
58874;SDS011;44652;49.040;12.126;2024-03-23T12:13:37;0.28;;;0.28;;
58874;SDS011;44652;49.040;12.126;2024-03-23T12:18:41;1.17;;;0.73;;
58874;SDS011;44652;49.040;12.126;2024-03-23T12:21:08;0.65;;;0.50;;
58874;SDS011;44652;49.040;12.126;2024-03-23T12:23:34;0.73;;;0.60;;
58874;SDS011;44652;49.040;12.126;2024-03-23T12:26:01;1.30;;;0.70;;
58874;SDS011;44652;49.040;12.126;2024-03-23T12:28:27;1.88;;;0.85;;
58874;SDS011;44652;49.040;12.126;2024-03-23T12:30:53;1.65;;;0.60;;
58874;SDS011;44652;49.040;12.126;2024-03-23T12:33:20;1.20;;;0.60;;
58874;SDS011;44652;49.040;12.126;2024-03-23T12:35:47;1.65;;;0.95;;
58874;SDS011;44652;49.040;12.126;2024-03-23T12:38:16;3.33;;;0.80;;
58874;SDS011;44652;49.040;12.126;2024-03-23T12:40:49;1.95;;;0.90;;
58874;SDS011;44652;49.040;12.126;2024-03-23T12:43:15;0.68;;;0.57;;
58874;SDS011;44652;49.040;12.126;2024-03-23T12:45:51;1.48;;;0.75;;
58874;SDS011;44652;49.040;12.126;2024-03-23T12:48:16;1.48;;;0.63;;
58874;SDS011;44652;49.040;12.126;2024-03-23T12:50:42;0.95;;;0.50;;
58874;SDS011;44652;49.040;12.126;2024-03-23T12:53:08;0.60;;;0.60;;
58874;SDS011;44652;49.040;12.126;2024-03-23T12:55:37;1.77;;;0.80;;
58874;SDS011;44652;49.040;12.126;2024-03-23T12:58:03;1.23;;;0.90;;
58874;SDS011;44652;49.040;12.126;2024-03-23T13:00:30;1.40;;;0.88;;
58874;SDS011;44652;49.040;12.126;2024-03-23T13:02:56;1.48;;;0.55;;
58874;SDS011;44652;49.040;12.126;2024-03-23T13:05:21;2.17;;;0.65;;
58874;SDS011;44652;49.040;12.126;2024-03-23T13:07:47;2.35;;;0.88;;
58874;SDS011;44652;49.040;12.126;2024-03-23T13:10:13;1.98;;;0.90;;
58874;SDS011;44652;49.040;12.126;2024-03-23T13:12:40;1.92;;;1.05;;
58874;SDS011;44652;49.040;12.126;2024-03-23T13:15:05;1.30;;;0.88;;
58874;SDS011;44652;49.040;12.126;2024-03-23T13:17:31;1.13;;;0.70;;
58874;SDS011;44652;49.040;12.126;2024-03-23T13:19:57;1.42;;;0.90;;
58874;SDS011;44652;49.040;12.126;2024-03-23T13:22:23;1.35;;;0.77;;
58874;SDS011;44652;49.040;12.126;2024-03-23T13:24:48;2.10;;;0.60;;
58874;SDS011;44652;49.040;12.126;2024-03-23T13:27:14;1.90;;;0.60;;
58874;SDS011;44652;49.040;12.126;2024-03-23T13:29:40;2.53;;;0.88;;
58874;SDS011;44652;49.040;12.126;2024-03-23T13:32:06;1.20;;;0.65;;
58874;SDS011;44652;49.040;12.126;2024-03-23T13:34:33;2.33;;;1.13;;
58874;SDS011;44652;49.040;12.126;2024-03-23T13:37:00;2.72;;;1.13;;
58874;SDS011;44652;49.040;12.126;2024-03-23T13:39:26;1.58;;;0.85;;
58874;SDS011;44652;49.040;12.126;2024-03-23T13:41:55;1.60;;;1.10;;
58874;SDS011;44652;49.040;12.126;2024-03-23T13:44:23;1.05;;;0.63;;
58874;SDS011;44652;49.040;12.126;2024-03-23T13:46:49;1.52;;;0.82;;
58874;SDS011;44652;49.040;12.126;2024-03-23T13:49:33;3.33;;;0.90;;
58874;SDS011;44652;49.040;12.126;2024-03-23T13:51:59;1.80;;;0.80;;
58874;SDS011;44652;49.040;12.126;2024-03-23T13:54:26;1.23;;;0.75;;
58874;SDS011;44652;49.040;12.126;2024-03-23T13:56:53;1.45;;;0.88;;
58874;SDS011;44652;49.040;12.126;2024-03-23T13:59:21;1.88;;;1.05;;
58874;SDS011;44652;49.040;12.126;2024-03-23T14:01:48;2.10;;;0.85;;
58874;SDS011;44652;49.040;12.126;2024-03-23T14:04:15;1.98;;;0.75;;
58874;SDS011;44652;49.040;12.126;2024-03-23T14:06:45;2.40;;;1.10;;
58874;SDS011;44652;49.040;12.126;2024-03-23T14:09:14;5.63;;;0.80;;
58874;SDS011;44652;49.040;12.126;2024-03-23T14:11:46;1.33;;;0.70;;
58874;SDS011;44652;49.040;12.126;2024-03-23T14:14:12;2.72;;;1.30;;
58874;SDS011;44652;49.040;12.126;2024-03-23T14:16:37;3.28;;;1.60;;
58874;SDS011;44652;49.040;12.126;2024-03-23T14:19:03;2.55;;;1.15;;
58874;SDS011;44652;49.040;12.126;2024-03-23T14:21:31;4.05;;;1.20;;
58874;SDS011;44652;49.040;12.126;2024-03-23T14:23:57;1.17;;;0.90;;
58874;SDS011;44652;49.040;12.126;2024-03-23T14:26:22;1.15;;;0.82;;
58874;SDS011;44652;49.040;12.126;2024-03-23T14:28:49;4.22;;;1.17;;
58874;SDS011;44652;49.040;12.126;2024-03-23T14:31:15;2.80;;;1.20;;
58874;SDS011;44652;49.040;12.126;2024-03-23T14:33:41;1.58;;;0.90;;
58874;SDS011;44652;49.040;12.126;2024-03-23T14:36:11;2.20;;;1.17;;
58874;SDS011;44652;49.040;12.126;2024-03-23T14:38:39;1.88;;;1.20;;
58874;SDS011;44652;49.040;12.126;2024-03-23T14:41:06;1.92;;;0.90;;
58874;SDS011;44652;49.040;12.126;2024-03-23T14:43:31;1.17;;;0.70;;
58874;SDS011;44652;49.040;12.126;2024-03-23T14:46:10;1.35;;;0.98;;
58874;SDS011;44652;49.040;12.126;2024-03-23T14:48:36;2.17;;;0.80;;
58874;SDS011;44652;49.040;12.126;2024-03-23T14:51:03;2.97;;;1.10;;
58874;SDS011;44652;49.040;12.126;2024-03-23T14:53:34;4.63;;;0.90;;
58874;SDS011;44652;49.040;12.126;2024-03-23T14:56:01;3.78;;;1.70;;
58874;SDS011;44652;49.040;12.126;2024-03-23T14:58:29;1.88;;;1.10;;
58874;SDS011;44652;49.040;12.126;2024-03-23T15:01:02;1.65;;;0.88;;
58874;SDS011;44652;49.040;12.126;2024-03-23T15:03:29;2.63;;;1.00;;
58874;SDS011;44652;49.040;12.126;2024-03-23T15:05:55;3.10;;;1.58;;
58874;SDS011;44652;49.040;12.126;2024-03-23T15:08:24;2.47;;;1.20;;
58874;SDS011;44652;49.040;12.126;2024-03-23T15:10:51;1.48;;;0.85;;
58874;SDS011;44652;49.040;12.126;2024-03-23T15:13:17;1.60;;;1.00;;
58874;SDS011;44652;49.040;12.126;2024-03-23T15:15:43;1.95;;;1.23;;
58874;SDS011;44652;49.040;12.126;2024-03-23T15:18:11;5.45;;;1.30;;
58874;SDS011;44652;49.040;12.126;2024-03-23T15:20:38;5.50;;;1.77;;
58874;SDS011;44652;49.040;12.126;2024-03-23T15:23:05;1.75;;;1.25;;
58874;SDS011;44652;49.040;12.126;2024-03-23T15:25:30;2.88;;;0.65;;
58874;SDS011;44652;49.040;12.126;2024-03-23T15:27:58;2.42;;;0.90;;
58874;SDS011;44652;49.040;12.126;2024-03-23T15:30:24;2.20;;;1.17;;
58874;SDS011;44652;49.040;12.126;2024-03-23T15:32:50;1.70;;;1.10;;
58874;SDS011;44652;49.040;12.126;2024-03-23T15:35:17;1.30;;;0.88;;
58874;SDS011;44652;49.040;12.126;2024-03-23T15:37:42;1.13;;;0.77;;
58874;SDS011;44652;49.040;12.126;2024-03-23T15:40:08;5.43;;;1.45;;
58874;SDS011;44652;49.040;12.126;2024-03-23T15:42:35;2.78;;;1.13;;
58874;SDS011;44652;49.040;12.126;2024-03-23T15:45:01;1.17;;;0.65;;
58874;SDS011;44652;49.040;12.126;2024-03-23T15:47:29;2.83;;;1.05;;
58874;SDS011;44652;49.040;12.126;2024-03-23T15:49:54;2.03;;;0.90;;
58874;SDS011;44652;49.040;12.126;2024-03-23T15:52:21;4.15;;;1.13;;
58874;SDS011;44652;49.040;12.126;2024-03-23T15:54:47;2.30;;;0.70;;
58874;SDS011;44652;49.040;12.126;2024-03-23T15:57:12;1.33;;;0.95;;
58874;SDS011;44652;49.040;12.126;2024-03-23T15:59:40;3.30;;;0.85;;
58874;SDS011;44652;49.040;12.126;2024-03-23T16:02:06;3.57;;;0.93;;
58874;SDS011;44652;49.040;12.126;2024-03-23T16:04:32;2.78;;;0.98;;
58874;SDS011;44652;49.040;12.126;2024-03-23T16:06:57;3.28;;;1.20;;
58874;SDS011;44652;49.040;12.126;2024-03-23T16:09:23;2.40;;;1.08;;
58874;SDS011;44652;49.040;12.126;2024-03-23T16:11:49;4.13;;;1.15;;
58874;SDS011;44652;49.040;12.126;2024-03-23T16:14:15;2.83;;;1.05;;
58874;SDS011;44652;49.040;12.126;2024-03-23T16:16:40;1.33;;;1.00;;
58874;SDS011;44652;49.040;12.126;2024-03-23T16:19:06;2.30;;;0.88;;
58874;SDS011;44652;49.040;12.126;2024-03-23T16:21:32;1.17;;;0.80;;
58874;SDS011;44652;49.040;12.126;2024-03-23T16:23:58;2.22;;;1.00;;
58874;SDS011;44652;49.040;12.126;2024-03-23T16:26:23;1.02;;;0.57;;
58874;SDS011;44652;49.040;12.126;2024-03-23T16:28:49;1.20;;;0.77;;
58874;SDS011;44652;49.040;12.126;2024-03-23T16:31:15;1.42;;;0.80;;
58874;SDS011;44652;49.040;12.126;2024-03-23T16:33:42;2.33;;;1.15;;
58874;SDS011;44652;49.040;12.126;2024-03-23T16:36:11;1.00;;;0.85;;
58874;SDS011;44652;49.040;12.126;2024-03-23T16:38:40;3.55;;;1.00;;
58874;SDS011;44652;49.040;12.126;2024-03-23T16:41:07;1.23;;;0.82;;
58874;SDS011;44652;49.040;12.126;2024-03-23T16:43:38;1.65;;;0.65;;
58874;SDS011;44652;49.040;12.126;2024-03-23T16:46:06;2.28;;;0.57;;
58874;SDS011;44652;49.040;12.126;2024-03-23T16:48:36;1.52;;;1.10;;
58874;SDS011;44652;49.040;12.126;2024-03-23T16:51:04;3.28;;;1.10;;
58874;SDS011;44652;49.040;12.126;2024-03-23T16:53:30;2.15;;;0.70;;
58874;SDS011;44652;49.040;12.126;2024-03-23T16:58:33;1.38;;;0.65;;
58874;SDS011;44652;49.040;12.126;2024-03-23T17:01:03;1.25;;;0.95;;
58874;SDS011;44652;49.040;12.126;2024-03-23T17:03:32;1.83;;;1.00;;
58874;SDS011;44652;49.040;12.126;2024-03-23T17:06:02;2.05;;;1.30;;
58874;SDS011;44652;49.040;12.126;2024-03-23T17:08:31;2.60;;;1.52;;
58874;SDS011;44652;49.040;12.126;2024-03-23T17:10:58;7.93;;;1.80;;
58874;SDS011;44652;49.040;12.126;2024-03-23T17:13:29;4.03;;;1.45;;
58874;SDS011;44652;49.040;12.126;2024-03-23T17:15:55;4.43;;;1.98;;
58874;SDS011;44652;49.040;12.126;2024-03-23T17:18:21;3.92;;;1.20;;
58874;SDS011;44652;49.040;12.126;2024-03-23T17:20:47;1.77;;;1.13;;
58874;SDS011;44652;49.040;12.126;2024-03-23T17:23:12;3.65;;;1.58;;
58874;SDS011;44652;49.040;12.126;2024-03-23T17:25:38;4.72;;;1.63;;
58874;SDS011;44652;49.040;12.126;2024-03-23T17:28:04;3.22;;;1.35;;
58874;SDS011;44652;49.040;12.126;2024-03-23T17:30:31;1.52;;;0.80;;
58874;SDS011;44652;49.040;12.126;2024-03-23T17:32:57;3.35;;;1.10;;
58874;SDS011;44652;49.040;12.126;2024-03-23T17:35:23;2.28;;;1.20;;
58874;SDS011;44652;49.040;12.126;2024-03-23T17:37:48;1.98;;;1.15;;
58874;SDS011;44652;49.040;12.126;2024-03-23T17:40:14;1.50;;;1.00;;
58874;SDS011;44652;49.040;12.126;2024-03-23T17:42:40;2.53;;;1.27;;
58874;SDS011;44652;49.040;12.126;2024-03-23T17:45:06;1.95;;;1.10;;
58874;SDS011;44652;49.040;12.126;2024-03-23T17:47:37;1.70;;;1.23;;
58874;SDS011;44652;49.040;12.126;2024-03-23T17:50:04;3.38;;;1.80;;
58874;SDS011;44652;49.040;12.126;2024-03-23T17:52:31;1.65;;;1.05;;
58874;SDS011;44652;49.040;12.126;2024-03-23T17:54:57;2.85;;;1.20;;
58874;SDS011;44652;49.040;12.126;2024-03-23T17:57:23;2.60;;;0.85;;
58874;SDS011;44652;49.040;12.126;2024-03-23T17:59:49;1.40;;;0.85;;
58874;SDS011;44652;49.040;12.126;2024-03-23T18:02:15;0.98;;;0.65;;
58874;SDS011;44652;49.040;12.126;2024-03-23T18:04:41;0.88;;;0.80;;
58874;SDS011;44652;49.040;12.126;2024-03-23T18:07:09;4.15;;;1.48;;
58874;SDS011;44652;49.040;12.126;2024-03-23T18:09:34;11.05;;;1.38;;
58874;SDS011;44652;49.040;12.126;2024-03-23T18:12:00;2.53;;;1.13;;
58874;SDS011;44652;49.040;12.126;2024-03-23T18:14:29;8.07;;;1.23;;
58874;SDS011;44652;49.040;12.126;2024-03-23T18:16:55;1.52;;;0.98;;
58874;SDS011;44652;49.040;12.126;2024-03-23T18:19:21;0.93;;;0.60;;
58874;SDS011;44652;49.040;12.126;2024-03-23T18:21:47;7.50;;;1.55;;
58874;SDS011;44652;49.040;12.126;2024-03-23T18:24:13;3.83;;;1.67;;
58874;SDS011;44652;49.040;12.126;2024-03-23T18:26:38;1.55;;;0.77;;
58874;SDS011;44652;49.040;12.126;2024-03-23T18:29:04;2.33;;;0.82;;
58874;SDS011;44652;49.040;12.126;2024-03-23T18:31:31;3.17;;;0.70;;
58874;SDS011;44652;49.040;12.126;2024-03-23T18:33:57;0.93;;;0.75;;
58874;SDS011;44652;49.040;12.126;2024-03-23T18:36:29;1.30;;;0.98;;
58874;SDS011;44652;49.040;12.126;2024-03-23T18:38:56;4.47;;;0.93;;
58874;SDS011;44652;49.040;12.126;2024-03-23T18:41:22;0.40;;;0.40;;
58874;SDS011;44652;49.040;12.126;2024-03-23T18:43:48;1.23;;;0.75;;
58874;SDS011;44652;49.040;12.126;2024-03-23T18:46:15;1.45;;;1.08;;
58874;SDS011;44652;49.040;12.126;2024-03-23T18:48:41;1.73;;;0.52;;
58874;SDS011;44652;49.040;12.126;2024-03-23T18:51:08;3.93;;;0.80;;
58874;SDS011;44652;49.040;12.126;2024-03-23T18:53:34;1.58;;;0.77;;
58874;SDS011;44652;49.040;12.126;2024-03-23T18:56:00;1.50;;;0.82;;
58874;SDS011;44652;49.040;12.126;2024-03-23T18:58:26;0.50;;;0.43;;
58874;SDS011;44652;49.040;12.126;2024-03-23T19:00:56;3.08;;;0.57;;
58874;SDS011;44652;49.040;12.126;2024-03-23T19:03:23;0.68;;;0.40;;
58874;SDS011;44652;49.040;12.126;2024-03-23T19:05:55;6.03;;;0.73;;
58874;SDS011;44652;49.040;12.126;2024-03-23T19:08:22;0.30;;;0.30;;
58874;SDS011;44652;49.040;12.126;2024-03-23T19:10:55;0.50;;;0.43;;
58874;SDS011;44652;49.040;12.126;2024-03-23T19:13:22;4.22;;;0.50;;
58874;SDS011;44652;49.040;12.126;2024-03-23T19:15:49;0.93;;;0.57;;
58874;SDS011;44652;49.040;12.126;2024-03-23T19:18:15;1.88;;;0.60;;
58874;SDS011;44652;49.040;12.126;2024-03-23T19:20:41;0.32;;;0.30;;
58874;SDS011;44652;49.040;12.126;2024-03-23T19:23:08;5.88;;;1.58;;
58874;SDS011;44652;49.040;12.126;2024-03-23T19:25:34;3.60;;;0.52;;
58874;SDS011;44652;49.040;12.126;2024-03-23T19:28:01;1.58;;;0.60;;
58874;SDS011;44652;49.040;12.126;2024-03-23T19:30:28;1.33;;;0.52;;
58874;SDS011;44652;49.040;12.126;2024-03-23T19:32:55;3.38;;;1.00;;
58874;SDS011;44652;49.040;12.126;2024-03-23T19:35:22;0.55;;;0.50;;
58874;SDS011;44652;49.040;12.126;2024-03-23T19:37:48;1.13;;;0.88;;
58874;SDS011;44652;49.040;12.126;2024-03-23T19:40:15;0.80;;;0.50;;
58874;SDS011;44652;49.040;12.126;2024-03-23T19:42:41;2.42;;;1.35;;
58874;SDS011;44652;49.040;12.126;2024-03-23T19:45:07;2.03;;;0.75;;
58874;SDS011;44652;49.040;12.126;2024-03-23T19:47:40;1.65;;;0.77;;
58874;SDS011;44652;49.040;12.126;2024-03-23T19:50:06;1.13;;;0.68;;
58874;SDS011;44652;49.040;12.126;2024-03-23T19:52:34;1.80;;;0.90;;
58874;SDS011;44652;49.040;12.126;2024-03-23T19:55:01;1.08;;;0.90;;
58874;SDS011;44652;49.040;12.126;2024-03-23T19:57:27;5.43;;;1.58;;
58874;SDS011;44652;49.040;12.126;2024-03-23T19:59:53;1.67;;;0.95;;
58874;SDS011;44652;49.040;12.126;2024-03-23T20:02:19;2.03;;;1.15;;
58874;SDS011;44652;49.040;12.126;2024-03-23T20:04:47;5.80;;;1.60;;
58874;SDS011;44652;49.040;12.126;2024-03-23T20:07:14;1.25;;;0.60;;
58874;SDS011;44652;49.040;12.126;2024-03-23T20:09:40;2.25;;;1.02;;
58874;SDS011;44652;49.040;12.126;2024-03-23T20:12:06;1.10;;;0.52;;
58874;SDS011;44652;49.040;12.126;2024-03-23T20:14:33;2.75;;;1.10;;
58874;SDS011;44652;49.040;12.126;2024-03-23T20:16:59;3.85;;;0.88;;
58874;SDS011;44652;49.040;12.126;2024-03-23T20:19:25;0.63;;;0.47;;
58874;SDS011;44652;49.040;12.126;2024-03-23T20:21:51;2.22;;;0.65;;
58874;SDS011;44652;49.040;12.126;2024-03-23T20:24:17;1.02;;;0.73;;
58874;SDS011;44652;49.040;12.126;2024-03-23T20:26:43;1.35;;;0.75;;
58874;SDS011;44652;49.040;12.126;2024-03-23T20:29:09;0.47;;;0.47;;
58874;SDS011;44652;49.040;12.126;2024-03-23T20:31:35;1.65;;;0.70;;
58874;SDS011;44652;49.040;12.126;2024-03-23T20:34:02;1.58;;;1.05;;
58874;SDS011;44652;49.040;12.126;2024-03-23T20:36:28;0.50;;;0.30;;
58874;SDS011;44652;49.040;12.126;2024-03-23T20:38:55;0.93;;;0.37;;
58874;SDS011;44652;49.040;12.126;2024-03-23T20:41:21;1.65;;;0.73;;
58874;SDS011;44652;49.040;12.126;2024-03-23T20:43:49;1.80;;;0.53;;
58874;SDS011;44652;49.040;12.126;2024-03-23T20:46:15;0.95;;;0.77;;
58874;SDS011;44652;49.040;12.126;2024-03-23T20:48:42;0.35;;;0.35;;
58874;SDS011;44652;49.040;12.126;2024-03-23T20:51:13;2.45;;;1.02;;
58874;SDS011;44652;49.040;12.126;2024-03-23T20:53:40;0.60;;;0.40;;
58874;SDS011;44652;49.040;12.126;2024-03-23T20:56:06;0.45;;;0.43;;
58874;SDS011;44652;49.040;12.126;2024-03-23T20:58:34;0.52;;;0.35;;
58874;SDS011;44652;49.040;12.126;2024-03-23T21:01:01;1.48;;;0.63;;
58874;SDS011;44652;49.040;12.126;2024-03-23T21:03:28;3.92;;;0.73;;
58874;SDS011;44652;49.040;12.126;2024-03-23T21:05:58;1.05;;;0.60;;
58874;SDS011;44652;49.040;12.126;2024-03-23T21:08:24;1.52;;;0.88;;
58874;SDS011;44652;49.040;12.126;2024-03-23T21:10:50;3.03;;;0.55;;
58874;SDS011;44652;49.040;12.126;2024-03-23T21:13:18;0.30;;;0.30;;
58874;SDS011;44652;49.040;12.126;2024-03-23T21:15:47;0.45;;;0.35;;
58874;SDS011;44652;49.040;12.126;2024-03-23T21:18:14;1.13;;;0.70;;
58874;SDS011;44652;49.040;12.126;2024-03-23T21:20:40;0.65;;;0.60;;